WetterOnline ( http://www.wetteronline.de )

Wetter aktuell Essen

Aktuelles Wetter: Essen (161m)

6-stündlich | Neueste Meldungen
Ortszeit Temperatur Wetter
So, 18.11. 7:00 -0.4° C wolkenlos
So, 18.11. 1:00 1.1° C wolkenlos
Sa, 17.11. 19:00 5.7° C wolkenlos
Sa, 17.11. 13:00 8.2° C wolkenlos
Sa, 17.11. 7:00 0.5° C wolkenlos
Sa, 17.11. 1:00 2.3° C wolkenlos
Fr, 16.11. 19:00 7.3° C wolkenlos
Fr, 16.11. 13:00 10.6° C wolkenlos
Ortszeit Temperatur Wetter
So, 18.11. 10:30 2.1° C fast wolkenlos
So, 18.11. 10:20 2.1° C fast wolkenlos
So, 18.11. 10:10 1.6° C fast wolkenlos
So, 18.11. 10:00 1.0° C wolkenlos
So, 18.11. 9:50 1.0° C wolkenlos
So, 18.11. 9:40 0.8° C fast wolkenlos
So, 18.11. 9:30 0.2° C leicht bewölkt
So, 18.11. 9:00 0.3° C fast wolkenlos
So, 18.11. 8:30 -0.4° C wolkenlos
So, 18.11. 8:00 -0.5° C wolkenlos
So, 18.11. 7:30 -0.4° C wolkenlos
Ortszeit Relative Feuchte Sichtweite
So, 18.11. 7:00 81% 14 km
So, 18.11. 1:00 75% 21 km
Sa, 17.11. 19:00 60% 45 km
Sa, 17.11. 13:00 58% 27 km
Sa, 17.11. 7:00 93% 8 km
Sa, 17.11. 1:00 90% 11 km
Fr, 16.11. 19:00 76% 21 km
Fr, 16.11. 13:00 62% 25 km
Ortszeit Relative Feuchte Sichtweite
So, 18.11. 10:30 61% 28 km
So, 18.11. 10:20 61% -
So, 18.11. 10:10 62% -
So, 18.11. 10:00 64% 23 km
So, 18.11. 9:50 64% -
So, 18.11. 9:40 67% -
So, 18.11. 9:30 71% 23 km
So, 18.11. 9:00 70% 21 km
So, 18.11. 8:30 77% 19 km
So, 18.11. 8:00 79% 16 km
So, 18.11. 7:30 80% 15 km
Ortszeit Niederschlagsmenge Niederschlagsart
So, 18.11. 7:00 0.0 l/m2 in 12 Std. -
So, 18.11. 1:00 0.0 l/m2 in 6 Std. -
Sa, 17.11. 19:00 0.0 l/m2 in 12 Std. -
Sa, 17.11. 13:00 0.0 l/m2 in 6 Std. -
Sa, 17.11. 7:00 0.0 l/m2 in 12 Std. -
Sa, 17.11. 1:00 0.0 l/m2 in 6 Std. -
Fr, 16.11. 19:00 0.0 l/m2 in 12 Std. -
Fr, 16.11. 13:00 0.0 l/m2 in 6 Std. -
Ortszeit Niederschlagsmenge Niederschlagsart
So, 18.11. 10:30 0.0 l/m2 in 1 Std. -
So, 18.11. 10:20 keine Meldung -
So, 18.11. 10:10 keine Meldung -
So, 18.11. 10:00 0.0 l/m2 in 1 Std. -
So, 18.11. 9:50 keine Meldung -
So, 18.11. 9:40 keine Meldung -
So, 18.11. 9:30 0.0 l/m2 in 1 Std. -
So, 18.11. 9:00 0.0 l/m2 in 1 Std. -
So, 18.11. 8:30 0.0 l/m2 in 1 Std. -
So, 18.11. 8:00 0.0 l/m2 in 1 Std. -
So, 18.11. 7:30 0.0 l/m2 in 1 Std. -
Ortszeit Stärke Spitze Richtung
km/h Bft. km/h Grad Sektor
So, 18.11. 7:00 14 3 29 80° O
So, 18.11. 1:00 13 3 33 80° O
Sa, 17.11. 19:00 15 3 31 70° O
Sa, 17.11. 13:00 11 2 25 70° O
Sa, 17.11. 7:00 9 2 17 90° O
Sa, 17.11. 1:00 9 2 17 100° O
Fr, 16.11. 19:00 7 2 15 100° O
Fr, 16.11. 13:00 7 2 25 130° SO
Ortszeit Stärke Spitze Richtung
km/h Bft. km/h Grad Sektor
So, 18.11. 10:30 15 3 31 90° O
So, 18.11. 10:20 15 3 - 90° O
So, 18.11. 10:10 18 3 - 80° O
So, 18.11. 10:00 19 3 33 70° O
So, 18.11. 9:50 19 3 - 70° O
So, 18.11. 9:40 17 3 - 70° O
So, 18.11. 9:30 15 3 28 60° NO
So, 18.11. 9:00 18 3 29 90° O
So, 18.11. 8:30 14 3 25 80° O
So, 18.11. 8:00 15 3 28 80° O
So, 18.11. 7:30 14 3 29 70° O
Ortszeit Untergrenze Bedeckung Gattung
total tief tief mittel hoch
So, 18.11. 7:00 - 0/8 0/8 - - -
So, 18.11. 1:00 - 0/8 0/8 - - -
Sa, 17.11. 19:00 - 0/8 0/8 - - -
Sa, 17.11. 13:00 - 0/8 0/8 - - -
Sa, 17.11. 7:00 - 0/8 0/8 - - -
Sa, 17.11. 1:00 - 0/8 0/8 - - -
Fr, 16.11. 19:00 - 0/8 0/8 - - -
Fr, 16.11. 13:00 - 0/8 0/8 - - -
Ortszeit Bedeckungsgrad in Achtel und Wolkenuntergrenze
So, 18.11. 10:30 2(7800m)
So, 18.11. 10:20 2(7800m)
So, 18.11. 10:10 2(7800m)
So, 18.11. 10:00 2(7800m)
So, 18.11. 9:50 keine Wolken
So, 18.11. 9:40 2(8400m)
So, 18.11. 9:30 3(8400m)
So, 18.11. 9:00 2(8700m)
So, 18.11. 8:30 keine Wolken
So, 18.11. 8:00 keine Wolken
So, 18.11. 7:30 keine Wolken
Ortszeit Luftdruck NN (hPa) Tendenz (hPa in 3 Std.)
So, 18.11. 7:00 1030 - 1,1
So, 18.11. 1:00 1031 - 0,5
Sa, 17.11. 19:00 1031 0,0
Sa, 17.11. 13:00 1031 + 0,1
Sa, 17.11. 7:00 1031 + 0,1
Sa, 17.11. 1:00 1030 + 0,3
Fr, 16.11. 19:00 1029 + 0,3
Fr, 16.11. 13:00 1029 - 0,1
Ortszeit Luftdruck NN (hPa) Tendenz (hPa in 3 Std.)
So, 18.11. 10:30 1030 - 1,0
So, 18.11. 10:20 1030 keine Meldung
So, 18.11. 10:10 1030 keine Meldung
So, 18.11. 10:00 1031 + 0,5
So, 18.11. 9:50 1031 keine Meldung
So, 18.11. 9:40 1031 keine Meldung
So, 18.11. 9:30 1030 + 0,1
So, 18.11. 9:00 1030 - 0,2
So, 18.11. 8:30 1031 + 0,4
So, 18.11. 8:00 1031 + 0,1
So, 18.11. 7:30 1031 - 0,4
Ortszeit Schneehöhe (cm)
So, 18.11. 7:00 0
So, 18.11. 1:00 0
Sa, 17.11. 19:00 0
Sa, 17.11. 13:00 0
Sa, 17.11. 7:00 0
Sa, 17.11. 1:00 0
Fr, 16.11. 19:00 0
Fr, 16.11. 13:00 0
Ortszeit Schneehöhe (cm)
So, 18.11. 10:30 0
So, 18.11. 10:20 0
So, 18.11. 10:10 0
So, 18.11. 10:00 0
So, 18.11. 9:50 0
So, 18.11. 9:40 0
So, 18.11. 9:30 0
So, 18.11. 9:00 0
So, 18.11. 8:30 0
So, 18.11. 8:00 0
So, 18.11. 7:30 0
Link zu dieser Seite / Seite empfehlen

Das Wetter in ...